createdAt,value
2022-09-25T00:02:10.321Z,76493.59
2022-09-25T00:04:37.530Z,76495.66
2022-09-25T00:07:04.606Z,76503.88
2022-09-25T00:09:31.774Z,76497.72
2022-09-25T00:11:59.029Z,76497.72
2022-09-25T00:14:26.582Z,76510.03
2022-09-25T00:16:53.875Z,76497.72
2022-09-25T00:19:39.600Z,76501.81
2022-09-25T00:22:06.987Z,76501.81
2022-09-25T00:24:34.494Z,76497.72
2022-09-25T00:27:01.938Z,76497.72
2022-09-25T00:29:31.002Z,76505.94
2022-09-25T00:31:58.147Z,76514.16
2022-09-25T00:34:25.459Z,76505.94
2022-09-25T00:36:52.507Z,76505.94
2022-09-25T00:39:19.618Z,76508.00
2022-09-25T00:41:46.744Z,76510.03
2022-09-25T00:44:32.791Z,76501.81
2022-09-25T00:46:59.797Z,76510.03
2022-09-25T00:49:26.843Z,76505.94
2022-09-25T00:51:55.241Z,76510.03
2022-09-25T00:54:32.003Z,76508.00
2022-09-25T00:57:00.143Z,76505.94
2022-09-25T00:59:31.055Z,76514.16
2022-09-25T01:01:59.351Z,76514.16
2022-09-25T01:04:26.814Z,76526.50
2022-09-25T01:06:54.121Z,76530.59
2022-09-25T01:09:21.136Z,76534.72
2022-09-25T01:11:48.153Z,76542.94
2022-09-25T01:14:17.254Z,76530.59
2022-09-25T01:16:44.765Z,76540.88
2022-09-25T01:19:15.434Z,76538.81
2022-09-25T01:21:43.721Z,76545.00
2022-09-25T01:24:19.169Z,76542.94
2022-09-25T01:26:56.495Z,76542.94
2022-09-25T01:29:26.175Z,76538.81
2022-09-25T01:32:08.867Z,76540.88
2022-09-25T01:34:56.489Z,76540.88
2022-09-25T01:37:23.606Z,76540.88
2022-09-25T01:39:54.374Z,76555.28
2022-09-25T01:42:22.666Z,76547.06
2022-09-25T01:44:55.042Z,76542.94
2022-09-25T01:47:24.142Z,76547.06
2022-09-25T01:49:53.201Z,76559.38
2022-09-25T01:52:22.602Z,76555.28
2022-09-25T01:54:51.917Z,76551.16
2022-09-25T01:57:20.778Z,76563.50
2022-09-25T01:59:56.904Z,76549.09
2022-09-25T02:02:26.016Z,76559.38
2022-09-25T02:04:54.235Z,76563.50
2022-09-25T02:07:22.704Z,76563.50
2022-09-25T02:09:53.312Z,76555.28
2022-09-25T02:12:47.112Z,76545.00
2022-09-25T02:15:15.283Z,76551.16
2022-09-25T02:18:01.753Z,76559.38
2022-09-25T02:20:32.275Z,76565.56
2022-09-25T02:23:05.720Z,76559.38
2022-09-25T02:25:35.973Z,76559.38
2022-09-25T02:28:03.046Z,76563.50
2022-09-25T02:30:30.206Z,76563.50
2022-09-25T02:32:58.154Z,76567.59
2022-09-25T02:35:26.017Z,76571.72
2022-09-25T02:37:53.611Z,76567.59
2022-09-25T02:40:20.729Z,76571.72
2022-09-25T02:42:55.838Z,76571.72
2022-09-25T02:45:27.470Z,76584.06
2022-09-25T02:47:57.406Z,76584.06
2022-09-25T02:50:27.198Z,76588.16
2022-09-25T02:52:54.259Z,76594.31
2022-09-25T02:55:25.171Z,76590.22
2022-09-25T02:57:56.564Z,76592.28
2022-09-25T03:00:23.694Z,76596.38
2022-09-25T03:02:55.026Z,76598.44
2022-09-25T03:05:22.252Z,76602.56
2022-09-25T03:08:08.649Z,76614.88
2022-09-25T03:10:36.397Z,76625.16
2022-09-25T03:13:16.988Z,76633.38
2022-09-25T03:15:45.321Z,76643.66
2022-09-25T03:18:12.968Z,76645.72
2022-09-25T03:20:40.492Z,76649.84
2022-09-25T03:23:07.682Z,76658.06
2022-09-25T03:25:34.843Z,76653.94
2022-09-25T03:28:01.933Z,76662.16
2022-09-25T03:30:29.461Z,76666.28
2022-09-25T03:32:56.666Z,76666.28
2022-09-25T03:35:23.839Z,76666.28
2022-09-25T03:37:50.895Z,76666.28
2022-09-25T03:40:17.977Z,76662.16
2022-09-25T03:42:45.401Z,76678.63
2022-09-25T03:45:12.770Z,76678.63
2022-09-25T03:47:39.797Z,76682.72
2022-09-25T03:50:08.403Z,76690.94
2022-09-25T03:52:35.600Z,76695.06
2022-09-25T03:55:02.811Z,76690.94
2022-09-25T03:57:31.029Z,76682.72
2022-09-25T04:00:03.532Z,76676.56
2022-09-25T04:02:30.897Z,76684.78
2022-09-25T04:04:59.102Z,76686.84
2022-09-25T04:07:26.139Z,76684.78
2022-09-25T04:09:53.198Z,76678.63
2022-09-25T04:12:21.301Z,76670.38
2022-09-25T04:14:48.321Z,76666.28
2022-09-25T04:17:15.582Z,76670.38
2022-09-25T04:19:42.589Z,76674.50
2022-09-25T04:22:09.645Z,76668.34
2022-09-25T04:24:49.418Z,76670.38
2022-09-25T04:27:21.767Z,76674.50
2022-09-25T04:29:51.085Z,76672.44
2022-09-25T04:32:37.005Z,76670.38
2022-09-25T04:35:04.336Z,76674.50
2022-09-25T04:37:31.839Z,76666.28
2022-09-25T04:39:58.882Z,76664.22
2022-09-25T04:42:25.940Z,76651.88
2022-09-25T04:44:56.431Z,76643.66
2022-09-25T04:47:23.996Z,76641.59
2022-09-25T04:49:51.050Z,76633.38
2022-09-25T04:52:18.724Z,76616.94
2022-09-25T04:54:46.052Z,76625.16
2022-09-25T04:57:45.549Z,76608.72
2022-09-25T05:00:07.897Z,76600.50
2022-09-25T05:02:35.040Z,76600.50
2022-09-25T05:05:02.240Z,76594.31
2022-09-25T05:07:29.381Z,76590.22
2022-09-25T05:09:57.826Z,76584.06
2022-09-25T05:12:24.857Z,76584.06
2022-09-25T05:14:51.900Z,76571.72
2022-09-25T05:17:18.921Z,76563.50
2022-09-25T05:19:46.007Z,76559.38
2022-09-25T05:22:13.103Z,76547.06
2022-09-25T05:24:40.936Z,76534.72
2022-09-25T05:27:09.855Z,76532.66
2022-09-25T05:29:37.853Z,76526.50
2022-09-25T05:32:05.062Z,76503.88
2022-09-25T05:34:32.426Z,76497.72
2022-09-25T05:36:59.465Z,76485.38
2022-09-25T05:39:26.998Z,76473.03
2022-09-25T05:41:54.108Z,76468.94
2022-09-25T05:44:21.335Z,76456.59
2022-09-25T05:46:48.526Z,76444.28
2022-09-25T05:49:15.565Z,76434.00
2022-09-25T05:51:42.893Z,76407.28
2022-09-25T05:54:10.298Z,76409.31
2022-09-25T05:56:37.494Z,76401.09
2022-09-25T05:59:04.766Z,76399.03
2022-09-25T06:01:31.819Z,76384.66
2022-09-25T06:03:59.069Z,76370.25
2022-09-25T06:06:27.592Z,76355.88
2022-09-25T06:08:54.874Z,76343.53
2022-09-25T06:11:22.458Z,76333.28
2022-09-25T06:13:54.272Z,76320.94
2022-09-25T06:16:21.821Z,76304.50
2022-09-25T06:18:49.106Z,76296.28
2022-09-25T06:21:16.132Z,76283.94
2022-09-25T06:23:45.314Z,76259.28
2022-09-25T06:26:12.920Z,76242.81
2022-09-25T06:28:40.060Z,76226.38
2022-09-25T06:31:07.462Z,76222.28
2022-09-25T06:33:34.584Z,76199.66
2022-09-25T06:36:01.786Z,76185.28
2022-09-25T06:38:29.191Z,76160.59
2022-09-25T06:41:00.055Z,76152.38
2022-09-25T06:43:27.935Z,76125.66
2022-09-25T06:45:55.072Z,76103.06
2022-09-25T06:48:22.368Z,76098.94
2022-09-25T06:50:52.979Z,76082.50
2022-09-25T06:53:20.326Z,76053.72
2022-09-25T06:55:47.908Z,76037.28
2022-09-25T06:58:19.708Z,76037.28
2022-09-25T07:00:47.293Z,76024.94
2022-09-25T07:03:33.090Z,76016.72
2022-09-25T07:06:00.591Z,76008.50
2022-09-25T07:08:27.715Z,76004.41
2022-09-25T07:10:56.682Z,75996.19
2022-09-25T07:13:24.859Z,75987.97
2022-09-25T07:15:55.756Z,75971.50
2022-09-25T07:18:22.944Z,75965.34
2022-09-25T07:20:50.133Z,75950.97
2022-09-25T07:23:18.511Z,75938.63
2022-09-25T07:25:46.179Z,75905.75
2022-09-25T07:28:14.016Z,75893.41
2022-09-25T07:30:41.428Z,75876.97
2022-09-25T07:33:08.725Z,75881.09
2022-09-25T07:35:36.870Z,75852.31
2022-09-25T07:38:04.220Z,75782.44
2022-09-25T07:40:32.184Z,75681.72
2022-09-25T07:43:00.206Z,75519.38
2022-09-25T07:45:27.489Z,75285.09
2022-09-25T07:47:58.474Z,75009.75
2022-09-25T07:50:26.319Z,74993.31
2022-09-25T07:52:53.650Z,74995.38
2022-09-25T07:55:21.530Z,74882.38
2022-09-25T07:57:49.484Z,74802.25
2022-09-25T08:00:16.956Z,74847.44
2022-09-25T08:02:44.168Z,74855.66
2022-09-25T08:05:11.990Z,74676.91
2022-09-25T08:07:39.458Z,74625.56
2022-09-25T08:10:15.823Z,74713.91
2022-09-25T08:12:43.292Z,74693.34
2022-09-25T08:15:10.855Z,74763.22
2022-09-25T08:17:37.904Z,74911.13
2022-09-25T08:20:05.312Z,75137.16
2022-09-25T08:22:32.463Z,75268.66
2022-09-25T08:25:02.220Z,75186.47
2022-09-25T08:27:30.347Z,75022.09
2022-09-25T08:29:57.465Z,74923.47
2022-09-25T08:32:24.472Z,74919.34
2022-09-25T08:34:51.549Z,74824.84
2022-09-25T08:37:21.081Z,74738.56
2022-09-25T08:39:48.111Z,74738.56
2022-09-25T08:42:22.312Z,74728.28
2022-09-25T08:45:21.026Z,74750.88
2022-09-25T08:48:12.045Z,74512.56
2022-09-25T08:50:39.110Z,74623.50
2022-09-25T08:53:07.449Z,74890.59
2022-09-25T08:55:54.081Z,74808.41
2022-09-25T08:58:24.563Z,74722.13
2022-09-25T09:00:54.790Z,74489.97
2022-09-25T09:03:23.065Z,74522.84
2022-09-25T09:05:51.788Z,74607.06
2022-09-25T09:08:20.089Z,74662.53
2022-09-25T09:11:01.761Z,74545.44
2022-09-25T09:13:34.290Z,74549.53
2022-09-25T09:16:02.066Z,74516.66
2022-09-25T09:18:30.083Z,74919.34
2022-09-25T09:20:58.220Z,75079.63
2022-09-25T09:23:29.714Z,75190.59
2022-09-25T09:26:06.603Z,75052.91
2022-09-25T09:28:33.685Z,74878.25
2022-09-25T09:31:19.443Z,74629.66
2022-09-25T09:33:58.670Z,74637.88
2022-09-25T09:36:46.605Z,74512.56
2022-09-25T09:39:25.903Z,74607.06
2022-09-25T09:42:09.262Z,74533.09
2022-09-25T09:44:57.727Z,74426.28
2022-09-25T09:47:43.706Z,74492.00
2022-09-25T09:50:20.207Z,74742.66
2022-09-25T09:52:48.533Z,74639.94
2022-09-25T09:55:15.799Z,74668.69
2022-09-25T09:57:47.640Z,74531.03
2022-09-25T10:00:16.555Z,74504.34
2022-09-25T10:02:44.809Z,74767.31
2022-09-25T10:05:16.798Z,74808.41
2022-09-25T10:07:43.843Z,74956.34
2022-09-25T10:10:12.170Z,74783.75
2022-09-25T10:12:39.216Z,74726.22
2022-09-25T10:15:08.015Z,74734.44
2022-09-25T10:17:37.969Z,74615.28
2022-09-25T10:20:12.748Z,74681.03
2022-09-25T10:22:40.907Z,74646.09
2022-09-25T10:25:08.126Z,74672.81
2022-09-25T10:27:36.669Z,74713.91
2022-09-25T10:30:03.722Z,74475.56
2022-09-25T10:32:32.619Z,74767.31
2022-09-25T10:34:59.664Z,75061.13
2022-09-25T10:37:30.214Z,75139.22
2022-09-25T10:40:07.649Z,75057.03
2022-09-25T10:42:36.497Z,75040.59
2022-09-25T10:45:22.270Z,74915.25
2022-09-25T10:48:08.487Z,74960.44
2022-09-25T10:50:39.047Z,75149.50
2022-09-25T10:53:07.635Z,74956.34
2022-09-25T10:55:36.446Z,74775.53
2022-09-25T10:58:03.841Z,74935.78
2022-09-25T11:00:30.910Z,74935.78
2022-09-25T11:02:59.686Z,74781.69
2022-09-25T11:05:30.811Z,74660.47
2022-09-25T11:07:58.633Z,74627.59
2022-09-25T11:10:29.847Z,74691.28
2022-09-25T11:12:57.232Z,74828.94
2022-09-25T11:15:27.573Z,74870.03
2022-09-25T11:17:55.316Z,74939.91
2022-09-25T11:20:29.811Z,75100.19
2022-09-25T11:23:16.033Z,75059.06
2022-09-25T11:25:49.261Z,75190.59
2022-09-25T11:28:20.318Z,75248.13
2022-09-25T11:30:55.185Z,75239.91
2022-09-25T11:33:28.554Z,75202.91
2022-09-25T11:36:00.355Z,75254.28
2022-09-25T11:39:00.049Z,75120.72
2022-09-25T11:41:47.078Z,75075.53
2022-09-25T11:44:33.996Z,75176.19
2022-09-25T11:47:05.038Z,75248.13
2022-09-25T11:49:34.437Z,75305.66
2022-09-25T11:52:07.599Z,75256.34
2022-09-25T11:54:36.891Z,75184.41
2022-09-25T11:57:11.493Z,75153.59
2022-09-25T11:59:38.995Z,75281.00
2022-09-25T12:02:22.594Z,75239.91
2022-09-25T12:04:59.173Z,74987.16
2022-09-25T12:07:49.916Z,75005.66
2022-09-25T12:10:23.978Z,74902.91
2022-09-25T12:13:10.180Z,75077.56
2022-09-25T12:15:37.346Z,75174.16
2022-09-25T12:18:10.779Z,75046.75
2022-09-25T12:20:43.990Z,74923.47
2022-09-25T12:23:31.547Z,74972.78
2022-09-25T12:25:58.681Z,75091.97
2022-09-25T12:28:25.760Z,75231.69
2022-09-25T12:31:12.301Z,75256.34
2022-09-25T12:33:40.112Z,75106.34
2022-09-25T12:36:17.990Z,75030.31
2022-09-25T12:38:48.018Z,75135.09
2022-09-25T12:41:17.995Z,75256.34
2022-09-25T12:43:51.999Z,75235.78
2022-09-25T12:46:22.169Z,75083.75
2022-09-25T12:48:52.254Z,74968.66
2022-09-25T12:51:45.790Z,75005.66
2022-09-25T12:54:23.250Z,75017.97
2022-09-25T12:56:53.015Z,74983.06
2022-09-25T12:59:33.737Z,75087.84
2022-09-25T13:02:01.198Z,75163.88
2022-09-25T13:04:43.323Z,75268.66
2022-09-25T13:07:29.357Z,75293.34
2022-09-25T13:09:56.674Z,75309.78
2022-09-25T13:12:36.818Z,75137.16
2022-09-25T13:15:10.703Z,75022.09
2022-09-25T13:17:37.908Z,75022.09
2022-09-25T13:20:24.054Z,75161.81
2022-09-25T13:22:51.117Z,75254.28
2022-09-25T13:25:19.206Z,75322.09
2022-09-25T13:27:46.468Z,75318.00
2022-09-25T13:30:23.809Z,75293.34
2022-09-25T13:32:54.915Z,75104.28
2022-09-25T13:35:22.474Z,75077.56
2022-09-25T13:37:50.280Z,75141.28
2022-09-25T13:40:46.467Z,75248.13
2022-09-25T13:43:24.543Z,75202.91
2022-09-25T13:46:15.863Z,75281.00
2022-09-25T13:48:42.990Z,75346.75
2022-09-25T13:51:30.263Z,75412.53
2022-09-25T13:54:03.658Z,75420.72
2022-09-25T13:56:34.248Z,75449.50
2022-09-25T13:59:02.337Z,75439.22
2022-09-25T14:01:36.998Z,75433.06
2022-09-25T14:04:13.458Z,75281.00
2022-09-25T14:06:44.813Z,75102.22
2022-09-25T14:09:13.668Z,74907.03
2022-09-25T14:11:41.090Z,74863.88
2022-09-25T14:14:09.669Z,74794.03
2022-09-25T14:16:40.978Z,74828.94
2022-09-25T14:19:08.700Z,74958.41
2022-09-25T14:21:37.511Z,74820.75
2022-09-25T14:24:30.847Z,74738.56
2022-09-25T14:26:58.761Z,74767.31
2022-09-25T14:29:29.691Z,74981.00
2022-09-25T14:32:01.359Z,75135.09
2022-09-25T14:34:37.806Z,75244.00
2022-09-25T14:37:15.779Z,75264.56
2022-09-25T14:39:45.553Z,75338.53
2022-09-25T14:42:16.699Z,75367.31
2022-09-25T14:44:49.179Z,75420.72
2022-09-25T14:47:16.228Z,75457.72
2022-09-25T14:49:44.810Z,75453.63
2022-09-25T14:52:13.569Z,75486.50
2022-09-25T14:54:41.183Z,75502.94
2022-09-25T14:57:08.877Z,75507.03
2022-09-25T14:59:41.967Z,75539.94
2022-09-25T15:02:16.616Z,75556.38
2022-09-25T15:04:43.695Z,75578.97
2022-09-25T15:07:14.209Z,75585.13
2022-09-25T15:09:47.352Z,75587.19
2022-09-25T15:12:17.990Z,75595.41
2022-09-25T15:15:03.691Z,75597.47
2022-09-25T15:17:31.650Z,75609.81
2022-09-25T15:19:59.961Z,75626.25
2022-09-25T15:22:31.317Z,75634.47
2022-09-25T15:24:59.645Z,75626.25
2022-09-25T15:27:28.406Z,75648.84
2022-09-25T15:29:55.714Z,75655.00
2022-09-25T15:32:41.085Z,75650.91
2022-09-25T15:35:10.880Z,75661.19
2022-09-25T15:37:39.438Z,75679.69
2022-09-25T15:40:18.881Z,75696.13
2022-09-25T15:42:49.600Z,75708.44
2022-09-25T15:45:38.135Z,75720.78
2022-09-25T15:48:32.983Z,75722.84
2022-09-25T15:51:03.846Z,75720.78
2022-09-25T15:53:33.072Z,75729.00
2022-09-25T15:56:11.790Z,75737.22
2022-09-25T15:58:43.749Z,75745.44
2022-09-25T16:01:30.261Z,75745.44
2022-09-25T16:04:16.092Z,75753.66
2022-09-25T16:06:44.745Z,75782.44
2022-09-25T16:09:20.471Z,75790.66
2022-09-25T16:11:48.443Z,75802.97
2022-09-25T16:14:20.198Z,75811.22
2022-09-25T16:16:47.489Z,75835.88
2022-09-25T16:19:34.788Z,75807.09
2022-09-25T16:22:12.801Z,75819.44
2022-09-25T16:24:40.912Z,75852.31
2022-09-25T16:27:07.954Z,75860.53
2022-09-25T16:29:36.543Z,75860.53
2022-09-25T16:32:04.477Z,75881.09
2022-09-25T16:34:35.777Z,75872.84
2022-09-25T16:37:03.617Z,75887.25
2022-09-25T16:39:31.352Z,75889.31
2022-09-25T16:42:00.066Z,75893.41
2022-09-25T16:44:27.844Z,75889.31
2022-09-25T16:46:55.918Z,75891.34
2022-09-25T16:49:23.566Z,75893.41
2022-09-25T16:51:51.010Z,75897.53
2022-09-25T16:54:19.187Z,75899.56
2022-09-25T16:56:48.210Z,75895.47
2022-09-25T16:59:16.203Z,75887.25
2022-09-25T17:01:43.429Z,75903.69
2022-09-25T17:04:11.306Z,75897.53
2022-09-25T17:06:40.845Z,75897.53
2022-09-25T17:09:10.701Z,75891.34
2022-09-25T17:11:38.537Z,75909.84
2022-09-25T17:14:09.584Z,75907.81
2022-09-25T17:16:36.698Z,75905.75
2022-09-25T17:19:05.508Z,75909.84
2022-09-25T17:21:34.079Z,75922.19
2022-09-25T17:24:01.346Z,75918.06
2022-09-25T17:26:29.145Z,75930.41
2022-09-25T17:28:56.193Z,75918.06
2022-09-25T17:31:23.699Z,75928.34
2022-09-25T17:33:50.792Z,75926.28
2022-09-25T17:36:17.873Z,75930.41
2022-09-25T17:38:45.138Z,75938.63
2022-09-25T17:41:17.877Z,75946.84
2022-09-25T17:43:45.075Z,75959.19
2022-09-25T17:46:14.806Z,75948.91
2022-09-25T17:48:42.724Z,75942.75
2022-09-25T17:51:09.842Z,75942.75
2022-09-25T17:53:36.976Z,75944.78
2022-09-25T17:56:04.515Z,75942.75
2022-09-25T17:58:32.194Z,75950.97
2022-09-25T18:01:00.920Z,75950.97
2022-09-25T18:03:30.319Z,75944.78
2022-09-25T18:05:57.481Z,75934.53
2022-09-25T18:08:25.646Z,75934.53
2022-09-25T18:10:54.921Z,75938.63
2022-09-25T18:13:22.014Z,75934.53
2022-09-25T18:15:50.661Z,75926.28
2022-09-25T18:18:17.795Z,75938.63
2022-09-25T18:21:08.367Z,75924.25
2022-09-25T18:23:38.585Z,75928.34
2022-09-25T18:26:07.197Z,75922.19
2022-09-25T18:28:34.294Z,75913.97
2022-09-25T18:31:01.930Z,75909.84
2022-09-25T18:33:29.175Z,75905.75
2022-09-25T18:35:56.283Z,75891.34
2022-09-25T18:38:23.503Z,75897.53
2022-09-25T18:40:50.591Z,75897.53
2022-09-25T18:43:17.780Z,75895.47
2022-09-25T18:45:51.043Z,75895.47
2022-09-25T18:48:18.183Z,75901.63
2022-09-25T18:50:49.287Z,75899.56
2022-09-25T18:53:16.521Z,75901.63
2022-09-25T18:55:43.824Z,75901.63
2022-09-25T18:58:11.559Z,75905.75
2022-09-25T19:00:39.851Z,75913.97
2022-09-25T19:03:07.255Z,75918.06
2022-09-25T19:05:34.478Z,75926.28
2022-09-25T19:08:03.460Z,75928.34
2022-09-25T19:10:31.386Z,75924.25
2022-09-25T19:12:58.474Z,75930.41
2022-09-25T19:15:26.221Z,75926.28
2022-09-25T19:17:53.625Z,75930.41
2022-09-25T19:20:20.834Z,75924.25
2022-09-25T19:22:47.852Z,75926.28
2022-09-25T19:25:18.953Z,75930.41
2022-09-25T19:27:48.721Z,75922.19
2022-09-25T19:30:15.829Z,75918.06
2022-09-25T19:32:43.372Z,75918.06
2022-09-25T19:35:11.290Z,75922.19
2022-09-25T19:37:38.983Z,75922.19
2022-09-25T19:40:24.930Z,75922.19
2022-09-25T19:42:52.080Z,75926.28
2022-09-25T19:45:19.777Z,75926.28
2022-09-25T19:47:46.838Z,75938.63
2022-09-25T19:50:14.356Z,75930.41
2022-09-25T19:52:41.396Z,75950.97
2022-09-25T19:55:08.699Z,75959.19
2022-09-25T19:57:36.563Z,75955.06
2022-09-25T20:00:04.424Z,75955.06
2022-09-25T20:02:32.191Z,75955.06
2022-09-25T20:05:00.119Z,75942.75
2022-09-25T20:07:27.234Z,75938.63
2022-09-25T20:09:55.222Z,75930.41
2022-09-25T20:12:22.486Z,75924.25
2022-09-25T20:14:49.753Z,75938.63
2022-09-25T20:17:16.853Z,75936.56
2022-09-25T20:19:44.039Z,75936.56
2022-09-25T20:22:11.100Z,75946.84
2022-09-25T20:24:38.127Z,75948.91
2022-09-25T20:27:05.209Z,75950.97
2022-09-25T20:29:32.251Z,75946.84
2022-09-25T20:31:59.272Z,75950.97
2022-09-25T20:34:26.307Z,75942.75
2022-09-25T20:36:53.364Z,75942.75
2022-09-25T20:39:21.704Z,75942.75
2022-09-25T20:41:49.229Z,75946.84
2022-09-25T20:44:16.456Z,75959.19
2022-09-25T20:46:43.705Z,75967.41
2022-09-25T20:49:11.638Z,75963.28
2022-09-25T20:51:40.088Z,75963.28
2022-09-25T20:54:07.668Z,75959.19
2022-09-25T20:56:35.358Z,75959.19
2022-09-25T20:59:02.515Z,75955.06
2022-09-25T21:01:31.494Z,75946.84
2022-09-25T21:03:59.560Z,75938.63
2022-09-25T21:06:28.897Z,75930.41
2022-09-25T21:08:56.637Z,75928.34
2022-09-25T21:11:24.055Z,75922.19
2022-09-25T21:13:52.116Z,75918.06
2022-09-25T21:16:19.832Z,75916.03
2022-09-25T21:18:56.822Z,75916.03
2022-09-25T21:21:24.953Z,75918.06
2022-09-25T21:23:54.204Z,75926.28
2022-09-25T21:26:21.770Z,75930.41
2022-09-25T21:28:51.505Z,75930.41
2022-09-25T21:31:19.568Z,75934.53
2022-09-25T21:33:46.694Z,75934.53
2022-09-25T21:36:14.686Z,75934.53
2022-09-25T21:38:42.317Z,75942.75
2022-09-25T21:41:11.185Z,75955.06
2022-09-25T21:43:38.423Z,75953.00
2022-09-25T21:46:09.273Z,75950.97
2022-09-25T21:48:36.683Z,75955.06
2022-09-25T21:51:07.957Z,75950.97
2022-09-25T21:53:35.119Z,75959.19
2022-09-25T21:56:12.403Z,75967.41
2022-09-25T21:58:39.738Z,75963.28
2022-09-25T22:01:09.829Z,75969.47
2022-09-25T22:03:39.930Z,75987.97
2022-09-25T22:06:09.098Z,75983.84
2022-09-25T22:08:37.148Z,75983.84
2022-09-25T22:11:04.812Z,75971.50
2022-09-25T22:13:32.830Z,75971.50
2022-09-25T22:16:00.992Z,75975.63
2022-09-25T22:18:28.477Z,75973.56
2022-09-25T22:20:55.495Z,75979.75
2022-09-25T22:23:23.855Z,75985.91
2022-09-25T22:25:51.649Z,75981.78
2022-09-25T22:28:19.348Z,75987.97
2022-09-25T22:30:46.542Z,75983.84
2022-09-25T22:33:13.664Z,75981.78
2022-09-25T22:35:40.721Z,75983.84
2022-09-25T22:38:09.531Z,75979.75
2022-09-25T22:40:37.822Z,75981.78
2022-09-25T22:43:05.533Z,75975.63
2022-09-25T22:45:33.316Z,75987.97
2022-09-25T22:48:00.657Z,75975.63
2022-09-25T22:50:27.918Z,75992.06
2022-09-25T22:52:58.344Z,75987.97
2022-09-25T22:55:26.255Z,75996.19
2022-09-25T22:57:53.391Z,75996.19
2022-09-25T23:00:20.572Z,75994.13
2022-09-25T23:02:47.638Z,75990.00
2022-09-25T23:05:14.798Z,75996.19
2022-09-25T23:07:42.564Z,76006.47
2022-09-25T23:10:09.668Z,76004.41
2022-09-25T23:12:38.568Z,75996.19
2022-09-25T23:15:05.818Z,76008.50
2022-09-25T23:17:32.949Z,76004.41
2022-09-25T23:20:00.243Z,76002.34
2022-09-25T23:22:27.707Z,76000.28
2022-09-25T23:24:54.730Z,76006.47
2022-09-25T23:27:21.786Z,76000.28
2022-09-25T23:29:48.796Z,76004.41
2022-09-25T23:32:15.876Z,76000.28
2022-09-25T23:34:44.674Z,76004.41
2022-09-25T23:37:13.703Z,76004.41
2022-09-25T23:39:40.773Z,76002.34
2022-09-25T23:42:07.818Z,76000.28
2022-09-25T23:44:35.113Z,76000.28
2022-09-25T23:47:02.258Z,76000.28
2022-09-25T23:49:29.363Z,76004.41
2022-09-25T23:51:56.445Z,76004.41
2022-09-25T23:54:23.584Z,76000.28
2022-09-25T23:56:50.594Z,76000.28
2022-09-25T23:59:17.672Z,76004.41
